sensor_id;sensor_type;location;lat;lon;timestamp;P1;durP1;ratioP1;P2;durP2;ratioP2
14320;SDS011;7244;47.364;8.464;2023-03-01T00:07:02;50;;;24;;
14320;SDS011;7244;47.364;8.464;2023-03-01T00:22:02;50;;;24;;
14320;SDS011;7244;47.364;8.464;2023-03-01T00:38:01;54;;;24;;
14320;SDS011;7244;47.364;8.464;2023-03-01T00:54:02;53;;;26;;
14320;SDS011;7244;47.364;8.464;2023-03-01T01:10:02;45;;;22;;
14320;SDS011;7244;47.364;8.464;2023-03-01T01:25:01;50;;;24;;
14320;SDS011;7244;47.364;8.464;2023-03-01T01:41:02;50;;;26;;
14320;SDS011;7244;47.364;8.464;2023-03-01T01:57:02;44;;;22;;
14320;SDS011;7244;47.364;8.464;2023-03-01T02:12:02;33;;;19;;
14320;SDS011;7244;47.364;8.464;2023-03-01T02:28:03;39;;;21;;
14320;SDS011;7244;47.364;8.464;2023-03-01T02:44:01;47;;;24;;
14320;SDS011;7244;47.364;8.464;2023-03-01T03:00:03;40;;;21;;
14320;SDS011;7244;47.364;8.464;2023-03-01T03:15:02;54;;;25;;
14320;SDS011;7244;47.364;8.464;2023-03-01T03:31:02;41;;;21;;
14320;SDS011;7244;47.364;8.464;2023-03-01T03:47:01;44;;;22;;
14320;SDS011;7244;47.364;8.464;2023-03-01T04:02:01;43;;;21;;
14320;SDS011;7244;47.364;8.464;2023-03-01T04:18:01;45;;;23;;
14320;SDS011;7244;47.364;8.464;2023-03-01T04:34:02;47;;;22;;
14320;SDS011;7244;47.364;8.464;2023-03-01T04:50:01;54;;;25;;
14320;SDS011;7244;47.364;8.464;2023-03-01T05:05:01;54;;;25;;
14320;SDS011;7244;47.364;8.464;2023-03-01T05:21:03;62;;;25;;
14320;SDS011;7244;47.364;8.464;2023-03-01T05:37:01;55;;;26;;
14320;SDS011;7244;47.364;8.464;2023-03-01T05:53:03;55;;;27;;
14320;SDS011;7244;47.364;8.464;2023-03-01T06:08:02;51;;;25;;
14320;SDS011;7244;47.364;8.464;2023-03-01T06:24:02;54;;;25;;
14320;SDS011;7244;47.364;8.464;2023-03-01T06:40:02;63;;;28;;
14320;SDS011;7244;47.364;8.464;2023-03-01T06:55:02;62;;;26;;
14320;SDS011;7244;47.364;8.464;2023-03-01T07:11:01;57;;;25;;
14320;SDS011;7244;47.364;8.464;2023-03-01T07:27:01;62;;;27;;
14320;SDS011;7244;47.364;8.464;2023-03-01T07:43:02;55;;;24;;
14320;SDS011;7244;47.364;8.464;2023-03-01T07:58:02;56;;;25;;
14320;SDS011;7244;47.364;8.464;2023-03-01T08:14:02;57;;;26;;
14320;SDS011;7244;47.364;8.464;2023-03-01T08:30:02;56;;;25;;
14320;SDS011;7244;47.364;8.464;2023-03-01T08:46:01;63;;;27;;
14320;SDS011;7244;47.364;8.464;2023-03-01T09:01:06;62;;;25;;
14320;SDS011;7244;47.364;8.464;2023-03-01T09:17:02;55;;;25;;
14320;SDS011;7244;47.364;8.464;2023-03-01T09:33:02;63;;;25;;
14320;SDS011;7244;47.364;8.464;2023-03-01T09:48:02;56;;;25;;
14320;SDS011;7244;47.364;8.464;2023-03-01T10:04:05;57;;;25;;
14320;SDS011;7244;47.364;8.464;2023-03-01T10:20:10;54;;;24;;
14320;SDS011;7244;47.364;8.464;2023-03-01T10:36:04;60;;;24;;
14320;SDS011;7244;47.364;8.464;2023-03-01T10:51:06;60;;;26;;
14320;SDS011;7244;47.364;8.464;2023-03-01T11:07:02;51;;;23;;
14320;SDS011;7244;47.364;8.464;2023-03-01T11:23:03;58;;;24;;
14320;SDS011;7244;47.364;8.464;2023-03-01T11:38:04;60;;;23;;
14320;SDS011;7244;47.364;8.464;2023-03-01T11:54:04;53;;;23;;
14320;SDS011;7244;47.364;8.464;2023-03-01T12:10:08;54;;;22;;
14320;SDS011;7244;47.364;8.464;2023-03-01T12:26:03;53;;;23;;
14320;SDS011;7244;47.364;8.464;2023-03-01T12:41:06;51;;;23;;
14320;SDS011;7244;47.364;8.464;2023-03-01T12:57:02;55;;;26;;
14320;SDS011;7244;47.364;8.464;2023-03-01T13:13:08;59;;;25;;
14320;SDS011;7244;47.364;8.464;2023-03-01T13:29:02;51;;;23;;
14320;SDS011;7244;47.364;8.464;2023-03-01T13:44:02;51;;;24;;
14320;SDS011;7244;47.364;8.464;2023-03-01T14:00:03;52;;;23;;
14320;SDS011;7244;47.364;8.464;2023-03-01T14:16:06;52;;;23;;
14320;SDS011;7244;47.364;8.464;2023-03-01T14:31:02;47;;;24;;
14320;SDS011;7244;47.364;8.464;2023-03-01T14:47:02;46;;;21;;
14320;SDS011;7244;47.364;8.464;2023-03-01T15:03:04;46;;;21;;
14320;SDS011;7244;47.364;8.464;2023-03-01T15:19:03;49;;;23;;
14320;SDS011;7244;47.364;8.464;2023-03-01T15:34:10;46;;;22;;
14320;SDS011;7244;47.364;8.464;2023-03-01T15:50:02;49;;;22;;
14320;SDS011;7244;47.364;8.464;2023-03-01T16:06:02;55;;;23;;
14320;SDS011;7244;47.364;8.464;2023-03-01T16:22:01;53;;;23;;
14320;SDS011;7244;47.364;8.464;2023-03-01T16:37:02;44;;;21;;
14320;SDS011;7244;47.364;8.464;2023-03-01T16:53:02;50;;;22;;
14320;SDS011;7244;47.364;8.464;2023-03-01T17:09:01;50;;;22;;
14320;SDS011;7244;47.364;8.464;2023-03-01T17:24:02;46;;;22;;
14320;SDS011;7244;47.364;8.464;2023-03-01T17:40:02;45;;;20;;
14320;SDS011;7244;47.364;8.464;2023-03-01T17:56:04;47;;;22;;
14320;SDS011;7244;47.364;8.464;2023-03-01T18:12:02;41;;;21;;
14320;SDS011;7244;47.364;8.464;2023-03-01T18:27:01;45;;;21;;
14320;SDS011;7244;47.364;8.464;2023-03-01T18:43:01;47;;;22;;
14320;SDS011;7244;47.364;8.464;2023-03-01T18:59:02;39;;;19;;
14320;SDS011;7244;47.364;8.464;2023-03-01T19:15:02;47;;;23;;
14320;SDS011;7244;47.364;8.464;2023-03-01T19:30:02;42;;;21;;
14320;SDS011;7244;47.364;8.464;2023-03-01T19:46:02;45;;;21;;
14320;SDS011;7244;47.364;8.464;2023-03-01T20:02:02;41;;;20;;
14320;SDS011;7244;47.364;8.464;2023-03-01T20:17:01;41;;;20;;
14320;SDS011;7244;47.364;8.464;2023-03-01T20:33:02;39;;;20;;
14320;SDS011;7244;47.364;8.464;2023-03-01T20:49:02;43;;;22;;
14320;SDS011;7244;47.364;8.464;2023-03-01T21:05:01;43;;;21;;
14320;SDS011;7244;47.364;8.464;2023-03-01T21:20:02;49;;;22;;
14320;SDS011;7244;47.364;8.464;2023-03-01T21:36:03;53;;;24;;
14320;SDS011;7244;47.364;8.464;2023-03-01T21:52:01;48;;;24;;
14320;SDS011;7244;47.364;8.464;2023-03-01T22:07:02;47;;;24;;
14320;SDS011;7244;47.364;8.464;2023-03-01T22:23:02;49;;;24;;
14320;SDS011;7244;47.364;8.464;2023-03-01T22:39:01;50;;;24;;
14320;SDS011;7244;47.364;8.464;2023-03-01T22:55:02;56;;;26;;
14320;SDS011;7244;47.364;8.464;2023-03-01T23:10:02;53;;;25;;
14320;SDS011;7244;47.364;8.464;2023-03-01T23:26:02;51;;;24;;
14320;SDS011;7244;47.364;8.464;2023-03-01T23:42:02;49;;;23;;
14320;SDS011;7244;47.364;8.464;2023-03-01T23:58:02;53;;;25;;
